createdAt,value
2023-03-16T00:00:54.973Z,2.10
2023-03-16T00:03:57.591Z,2.04
2023-03-16T00:07:00.209Z,2.20
2023-03-16T00:10:04.875Z,2.07
2023-03-16T00:13:07.492Z,2.07
2023-03-16T00:16:10.140Z,2.01
2023-03-16T00:19:12.781Z,2.03
2023-03-16T00:22:16.771Z,2.00
2023-03-16T00:25:20.781Z,1.92
2023-03-16T00:28:23.880Z,1.90
2023-03-16T00:31:26.644Z,1.87
2023-03-16T00:34:30.090Z,1.87
2023-03-16T00:37:33.263Z,1.89
2023-03-16T00:40:37.323Z,1.92
2023-03-16T00:43:41.671Z,1.91
2023-03-16T00:46:44.298Z,1.93
2023-03-16T00:49:46.968Z,1.99
2023-03-16T00:52:49.800Z,1.95
2023-03-16T00:55:54.057Z,1.81
2023-03-16T00:58:57.813Z,1.89
2023-03-16T01:02:00.557Z,1.89
2023-03-16T01:05:05.630Z,1.87
2023-03-16T01:08:08.222Z,1.78
2023-03-16T01:11:16.250Z,1.74
2023-03-16T01:14:18.958Z,1.81
2023-03-16T01:17:22.416Z,1.77
2023-03-16T01:20:26.500Z,1.77
2023-03-16T01:23:31.430Z,1.85
2023-03-16T01:26:35.672Z,1.78
2023-03-16T01:29:40.030Z,1.70
2023-03-16T01:32:43.381Z,1.63
2023-03-16T01:35:53.447Z,1.62
2023-03-16T01:38:56.159Z,1.64
2023-03-16T01:42:00.109Z,1.72
2023-03-16T01:45:05.454Z,1.70
2023-03-16T01:48:08.052Z,1.71
2023-03-16T01:51:16.845Z,1.66
2023-03-16T01:54:27.597Z,1.66
2023-03-16T01:57:36.796Z,1.48
2023-03-16T02:00:41.736Z,1.43
2023-03-16T02:03:45.279Z,1.47
2023-03-16T02:06:48.488Z,1.54
2023-03-16T02:09:55.158Z,1.56
2023-03-16T02:13:00.176Z,1.51
2023-03-16T02:16:03.974Z,1.50
2023-03-16T02:19:10.732Z,1.56
2023-03-16T02:22:14.084Z,1.60
2023-03-16T02:25:20.040Z,1.76
2023-03-16T02:28:32.582Z,1.88
2023-03-16T02:31:36.938Z,1.92
2023-03-16T02:34:40.821Z,1.96
2023-03-16T02:37:43.667Z,2.04
2023-03-16T02:40:56.040Z,2.02
2023-03-16T02:44:04.866Z,2.01
2023-03-16T02:47:16.727Z,2.00
2023-03-16T02:50:20.221Z,1.98
2023-03-16T02:53:23.765Z,2.01
2023-03-16T02:56:26.707Z,1.93
2023-03-16T02:59:30.098Z,1.83
2023-03-16T03:02:34.453Z,1.81
2023-03-16T03:05:38.394Z,1.83
2023-03-16T03:08:41.368Z,1.92
2023-03-16T03:11:44.343Z,1.93
2023-03-16T03:14:47.750Z,1.86
2023-03-16T03:17:52.740Z,1.80
2023-03-16T03:20:55.689Z,1.80
2023-03-16T03:23:58.628Z,1.77
2023-03-16T03:27:05.795Z,1.71
2023-03-16T03:30:10.244Z,1.63
2023-03-16T03:33:14.683Z,1.61
2023-03-16T03:36:18.052Z,1.78
2023-03-16T03:39:20.933Z,1.81
2023-03-16T03:42:24.446Z,1.85
2023-03-16T03:45:27.503Z,1.80
2023-03-16T03:48:31.835Z,1.70
2023-03-16T03:51:34.939Z,1.68
2023-03-16T03:54:37.777Z,1.73
2023-03-16T03:57:41.011Z,1.56
2023-03-16T04:00:43.778Z,1.59
2023-03-16T04:03:47.770Z,1.55
2023-03-16T04:06:51.123Z,1.57
2023-03-16T04:09:53.809Z,1.67
2023-03-16T04:12:58.013Z,1.57
2023-03-16T04:16:03.037Z,1.53
2023-03-16T04:19:07.032Z,1.57
2023-03-16T04:22:09.707Z,1.57
2023-03-16T04:25:13.546Z,1.54
2023-03-16T04:28:17.756Z,1.48
2023-03-16T04:31:20.437Z,1.47
2023-03-16T04:34:26.275Z,1.49
2023-03-16T04:37:28.920Z,1.44
2023-03-16T04:40:31.532Z,1.42
2023-03-16T04:43:35.199Z,1.50
2023-03-16T04:46:37.914Z,1.49
2023-03-16T04:49:42.538Z,1.54
2023-03-16T04:52:45.249Z,1.54
2023-03-16T04:55:48.030Z,1.58
2023-03-16T04:58:51.985Z,1.57
2023-03-16T05:01:54.647Z,1.56
2023-03-16T05:04:58.804Z,1.58
2023-03-16T05:08:01.704Z,1.57
2023-03-16T05:11:04.759Z,1.44
2023-03-16T05:14:07.493Z,1.54
2023-03-16T05:17:10.328Z,1.55
2023-03-16T05:20:16.459Z,1.47
2023-03-16T05:23:19.281Z,1.45
2023-03-16T05:26:21.941Z,1.44
2023-03-16T05:29:26.797Z,1.42
2023-03-16T05:32:29.876Z,1.38
2023-03-16T05:35:33.898Z,1.36
2023-03-16T05:38:37.058Z,1.40
2023-03-16T05:41:40.101Z,1.37
2023-03-16T05:44:44.848Z,1.31
2023-03-16T05:47:47.569Z,1.25
2023-03-16T05:50:51.817Z,1.29
2023-03-16T05:53:56.573Z,1.26
2023-03-16T05:56:59.219Z,1.26
2023-03-16T06:00:11.210Z,1.28
2023-03-16T06:03:14.021Z,1.29
2023-03-16T06:06:18.457Z,1.29
2023-03-16T06:09:21.128Z,1.30
2023-03-16T06:12:23.723Z,1.33
2023-03-16T06:15:26.674Z,1.42
2023-03-16T06:18:29.309Z,1.52
2023-03-16T06:21:33.250Z,1.58
2023-03-16T06:24:35.900Z,1.66
2023-03-16T06:27:39.948Z,1.79
2023-03-16T06:30:42.998Z,1.96
2023-03-16T06:33:45.660Z,2.19
2023-03-16T06:36:49.736Z,2.42
2023-03-16T06:39:52.335Z,2.74
2023-03-16T06:42:55.182Z,3.19
2023-03-16T06:45:58.792Z,3.66
2023-03-16T06:49:01.911Z,4.38
2023-03-16T06:52:06.090Z,5.19
2023-03-16T06:55:09.878Z,6.04
2023-03-16T06:58:12.773Z,6.79
2023-03-16T07:01:15.545Z,7.52
2023-03-16T07:04:18.305Z,8.34
2023-03-16T07:07:22.373Z,9.28
2023-03-16T07:10:25.490Z,10.39
2023-03-16T07:13:28.266Z,11.48
2023-03-16T07:16:30.950Z,12.40
2023-03-16T07:19:33.680Z,12.82
2023-03-16T07:22:37.984Z,13.44
2023-03-16T07:25:40.604Z,13.76
2023-03-16T07:28:43.207Z,13.40
2023-03-16T07:31:45.860Z,12.55
2023-03-16T07:34:48.502Z,11.09
2023-03-16T07:37:52.554Z,9.82
2023-03-16T07:40:55.211Z,8.58
2023-03-16T07:43:58.315Z,7.79
2023-03-16T07:47:01.572Z,7.36
2023-03-16T07:50:05.778Z,7.02
2023-03-16T07:53:10.166Z,6.75
2023-03-16T07:56:12.835Z,6.64
2023-03-16T07:59:15.485Z,6.53
2023-03-16T08:02:21.574Z,6.38
2023-03-16T08:05:26.571Z,6.43
2023-03-16T08:08:31.498Z,6.24
2023-03-16T08:11:37.515Z,6.14
2023-03-16T08:14:41.445Z,6.10
2023-03-16T08:17:44.762Z,6.10
2023-03-16T08:20:48.423Z,6.05
2023-03-16T08:23:52.918Z,6.09
2023-03-16T08:26:56.189Z,6.11
2023-03-16T08:30:04.593Z,6.12
2023-03-16T08:33:07.441Z,6.10
2023-03-16T08:36:13.541Z,6.14
2023-03-16T08:39:17.755Z,6.19
2023-03-16T08:42:21.116Z,6.29
2023-03-16T08:45:24.321Z,6.33
2023-03-16T08:48:28.815Z,6.35
2023-03-16T08:51:32.618Z,6.31
2023-03-16T08:54:36.789Z,6.43
2023-03-16T08:57:39.836Z,6.38
2023-03-16T09:00:44.873Z,6.51
2023-03-16T09:03:48.952Z,6.80
2023-03-16T09:07:07.876Z,7.01
2023-03-16T09:10:16.294Z,7.31
2023-03-16T09:13:19.451Z,7.59
2023-03-16T09:16:25.926Z,7.89
2023-03-16T09:19:34.846Z,8.09
2023-03-16T09:22:43.710Z,8.43
2023-03-16T09:25:48.247Z,8.69
2023-03-16T09:28:51.090Z,8.98
2023-03-16T09:31:53.908Z,9.19
2023-03-16T09:34:56.676Z,9.30
2023-03-16T09:38:07.137Z,9.41
2023-03-16T09:41:22.460Z,9.64
2023-03-16T09:44:35.113Z,9.86
2023-03-16T09:47:39.687Z,10.27
2023-03-16T09:50:48.702Z,10.69
2023-03-16T09:53:59.131Z,11.05
2023-03-16T09:57:05.235Z,11.35
2023-03-16T10:00:17.364Z,11.48
2023-03-16T10:03:36.460Z,11.52
2023-03-16T10:06:48.262Z,11.73
2023-03-16T10:09:57.974Z,11.49
2023-03-16T10:13:03.779Z,11.41
2023-03-16T10:16:12.503Z,11.27
2023-03-16T10:19:20.745Z,11.30
2023-03-16T10:22:26.408Z,11.46
2023-03-16T10:25:36.711Z,11.59
2023-03-16T10:28:43.057Z,11.49
2023-03-16T10:31:46.014Z,11.50
2023-03-16T10:34:56.149Z,11.70
2023-03-16T10:37:59.016Z,11.82
2023-03-16T10:41:02.165Z,11.98
2023-03-16T10:44:12.215Z,11.94
2023-03-16T10:47:20.063Z,12.04
2023-03-16T10:50:27.867Z,12.18
2023-03-16T10:53:35.863Z,12.49
2023-03-16T10:56:40.365Z,12.84
2023-03-16T10:59:50.015Z,12.94
2023-03-16T11:02:54.359Z,13.02
2023-03-16T11:06:02.306Z,13.00
2023-03-16T11:09:08.638Z,13.05
2023-03-16T11:12:17.310Z,13.20
2023-03-16T11:15:26.051Z,13.21
2023-03-16T11:18:33.084Z,13.33
2023-03-16T11:21:42.227Z,13.54
2023-03-16T11:24:50.375Z,13.57
2023-03-16T11:28:11.970Z,13.48
2023-03-16T11:31:24.424Z,13.50
2023-03-16T11:34:29.719Z,13.71
2023-03-16T11:37:46.948Z,13.68
2023-03-16T11:40:58.380Z,14.02
2023-03-16T11:44:09.927Z,14.27
2023-03-16T11:47:32.872Z,14.34
2023-03-16T11:50:44.305Z,14.56
2023-03-16T11:53:52.601Z,14.32
2023-03-16T11:56:59.063Z,14.40
2023-03-16T12:00:14.907Z,14.50
2023-03-16T12:03:54.095Z,14.80
2023-03-16T12:07:09.386Z,14.73
2023-03-16T12:10:24.857Z,14.84
2023-03-16T12:13:40.077Z,14.91
2023-03-16T12:16:50.136Z,14.85
2023-03-16T12:20:00.781Z,14.94
2023-03-16T12:23:09.323Z,15.37
2023-03-16T12:26:14.776Z,15.22
2023-03-16T12:29:28.506Z,15.19
2023-03-16T12:32:43.915Z,15.18
2023-03-16T12:35:56.770Z,14.91
2023-03-16T12:39:06.094Z,14.59
2023-03-16T12:42:27.365Z,14.62
2023-03-16T12:45:40.684Z,14.51
2023-03-16T12:48:48.036Z,14.45
2023-03-16T12:52:00.704Z,14.20
2023-03-16T12:55:13.251Z,14.20
2023-03-16T12:58:19.103Z,14.18
2023-03-16T13:01:28.944Z,14.36
2023-03-16T13:04:35.041Z,14.60
2023-03-16T13:07:48.053Z,14.70
2023-03-16T13:11:06.419Z,14.76
2023-03-16T13:14:12.748Z,14.68
2023-03-16T13:17:27.862Z,14.69
2023-03-16T13:20:33.782Z,14.85
2023-03-16T13:23:54.986Z,14.77
2023-03-16T13:27:03.234Z,14.75
2023-03-16T13:30:19.457Z,14.34
2023-03-16T13:33:26.285Z,14.15
2023-03-16T13:36:31.025Z,14.04
2023-03-16T13:39:35.431Z,13.91
2023-03-16T13:42:38.634Z,13.96
2023-03-16T13:45:41.693Z,14.07
2023-03-16T13:48:45.319Z,13.98
2023-03-16T13:51:48.567Z,13.99
2023-03-16T13:54:53.536Z,13.98
2023-03-16T13:57:56.826Z,14.06
2023-03-16T14:01:02.087Z,14.42
2023-03-16T14:04:13.705Z,14.86
2023-03-16T14:07:19.338Z,14.96
2023-03-16T14:10:26.029Z,15.17
2023-03-16T14:13:36.315Z,15.27
2023-03-16T14:16:39.420Z,15.30
2023-03-16T14:19:46.869Z,15.08
2023-03-16T14:22:53.045Z,14.84
2023-03-16T14:25:57.654Z,14.73
2023-03-16T14:29:06.405Z,14.62
2023-03-16T14:32:23.395Z,14.52
2023-03-16T14:35:29.266Z,14.26
2023-03-16T14:38:36.182Z,14.22
2023-03-16T14:41:40.981Z,14.24
2023-03-16T14:44:43.798Z,14.30
2023-03-16T14:47:48.423Z,14.35
2023-03-16T14:50:55.874Z,14.41
2023-03-16T14:53:58.808Z,14.21
2023-03-16T14:57:05.670Z,14.08
2023-03-16T15:00:12.209Z,13.98
2023-03-16T15:03:18.512Z,14.01
2023-03-16T15:06:21.857Z,13.91
2023-03-16T15:09:35.446Z,13.83
2023-03-16T15:12:40.968Z,13.72
2023-03-16T15:15:44.298Z,13.60
2023-03-16T15:18:47.737Z,13.53
2023-03-16T15:21:50.722Z,13.54
2023-03-16T15:24:53.578Z,13.57
2023-03-16T15:27:57.827Z,13.59
2023-03-16T15:31:03.202Z,13.51
2023-03-16T15:34:06.413Z,13.38
2023-03-16T15:37:13.783Z,13.34
2023-03-16T15:40:20.567Z,13.26
2023-03-16T15:43:27.310Z,13.23
2023-03-16T15:46:30.156Z,13.17
2023-03-16T15:49:46.615Z,13.07
2023-03-16T15:52:53.947Z,13.04
2023-03-16T15:56:01.169Z,13.02
2023-03-16T15:59:09.693Z,12.96
2023-03-16T16:02:27.581Z,12.81
2023-03-16T16:05:32.803Z,12.76
2023-03-16T16:08:36.038Z,12.75
2023-03-16T16:11:39.823Z,12.69
2023-03-16T16:14:44.095Z,12.68
2023-03-16T16:18:07.466Z,12.66
2023-03-16T16:21:17.835Z,12.58
2023-03-16T16:24:20.633Z,12.60
2023-03-16T16:27:23.993Z,12.56
2023-03-16T16:30:31.001Z,12.52
2023-03-16T16:33:36.161Z,12.54
2023-03-16T16:36:38.930Z,12.54
2023-03-16T16:39:41.721Z,12.50
2023-03-16T16:42:44.588Z,12.40
2023-03-16T16:45:49.998Z,12.34
2023-03-16T16:48:55.555Z,12.27
2023-03-16T16:51:59.048Z,12.10
2023-03-16T16:55:01.946Z,12.05
2023-03-16T16:58:09.826Z,11.87
2023-03-16T17:01:24.285Z,11.71
2023-03-16T17:04:29.465Z,11.63
2023-03-16T17:07:32.588Z,11.57
2023-03-16T17:10:35.525Z,11.47
2023-03-16T17:13:40.089Z,11.45
2023-03-16T17:16:44.655Z,11.38
2023-03-16T17:19:48.604Z,11.31
2023-03-16T17:22:51.420Z,11.23
2023-03-16T17:25:55.354Z,11.18
2023-03-16T17:29:02.400Z,11.14
2023-03-16T17:32:19.373Z,11.08
2023-03-16T17:35:22.659Z,11.07
2023-03-16T17:38:26.518Z,11.04
2023-03-16T17:41:32.986Z,10.98
2023-03-16T17:44:41.141Z,10.98
2023-03-16T17:47:46.221Z,10.89
2023-03-16T17:50:49.568Z,10.87
2023-03-16T17:53:52.996Z,10.77
2023-03-16T17:56:55.751Z,10.80
2023-03-16T17:59:59.355Z,10.75
2023-03-16T18:03:05.740Z,10.75
2023-03-16T18:06:13.202Z,10.78
2023-03-16T18:09:16.172Z,10.80
2023-03-16T18:12:19.004Z,10.83
2023-03-16T18:15:24.929Z,10.82
2023-03-16T18:18:31.974Z,10.78
2023-03-16T18:21:36.335Z,10.75
2023-03-16T18:24:39.181Z,10.68
2023-03-16T18:27:42.205Z,10.68
2023-03-16T18:30:47.980Z,10.64
2023-03-16T18:33:55.200Z,10.65
2023-03-16T18:37:00.724Z,10.60
2023-03-16T18:40:03.748Z,10.57
2023-03-16T18:43:07.298Z,10.58
2023-03-16T18:46:28.088Z,10.60
2023-03-16T18:49:34.982Z,10.59
2023-03-16T18:52:39.215Z,10.53
2023-03-16T18:55:44.985Z,10.54
2023-03-16T18:58:48.199Z,10.46
2023-03-16T19:01:51.466Z,10.40
2023-03-16T19:04:57.101Z,10.39
2023-03-16T19:07:59.838Z,10.37
2023-03-16T19:11:04.057Z,10.35
2023-03-16T19:14:15.637Z,10.33
2023-03-16T19:17:18.448Z,10.33
2023-03-16T19:20:25.268Z,10.30
2023-03-16T19:23:32.615Z,10.23
2023-03-16T19:26:37.273Z,10.23
2023-03-16T19:29:40.005Z,10.12
2023-03-16T19:32:43.292Z,10.11
2023-03-16T19:35:51.760Z,10.06
2023-03-16T19:38:54.893Z,9.98
2023-03-16T19:41:59.697Z,10.02
2023-03-16T19:45:02.539Z,9.97
2023-03-16T19:48:12.721Z,9.94
2023-03-16T19:51:18.517Z,9.89
2023-03-16T19:54:23.407Z,9.82
2023-03-16T19:57:26.559Z,9.70
2023-03-16T20:00:31.002Z,9.66
2023-03-16T20:03:37.297Z,9.46
2023-03-16T20:06:41.642Z,9.41
2023-03-16T20:09:44.896Z,9.38
2023-03-16T20:12:50.927Z,9.33
2023-03-16T20:15:54.301Z,9.29
2023-03-16T20:19:00.307Z,9.27
2023-03-16T20:22:04.379Z,9.29
2023-03-16T20:25:07.678Z,9.20
2023-03-16T20:28:17.899Z,9.08
2023-03-16T20:31:23.274Z,9.03
2023-03-16T20:34:28.518Z,9.08
2023-03-16T20:37:32.750Z,9.02
2023-03-16T20:40:35.415Z,9.01
2023-03-16T20:43:38.651Z,8.96
2023-03-16T20:46:41.716Z,8.94
2023-03-16T20:49:45.119Z,8.90
2023-03-16T20:52:49.603Z,8.86
2023-03-16T20:55:54.547Z,8.79
2023-03-16T20:58:59.061Z,8.79
2023-03-16T21:02:03.159Z,8.84
2023-03-16T21:05:09.721Z,8.79
2023-03-16T21:08:14.127Z,8.72
2023-03-16T21:11:22.518Z,8.68
2023-03-16T21:14:26.266Z,8.66
2023-03-16T21:17:31.938Z,8.64
2023-03-16T21:20:36.603Z,8.64
2023-03-16T21:23:40.865Z,8.65
2023-03-16T21:26:44.890Z,8.65
2023-03-16T21:29:48.282Z,8.61
2023-03-16T21:32:52.234Z,8.64
2023-03-16T21:35:55.037Z,8.61
2023-03-16T21:38:59.136Z,8.60
2023-03-16T21:42:02.280Z,8.64
2023-03-16T21:45:05.664Z,8.61
2023-03-16T21:48:14.243Z,8.56
2023-03-16T21:51:19.135Z,8.60
2023-03-16T21:54:23.160Z,8.59
2023-03-16T21:57:25.930Z,8.58
2023-03-16T22:00:31.989Z,8.56
2023-03-16T22:03:50.157Z,8.54
2023-03-16T22:06:54.028Z,8.53
2023-03-16T22:09:58.090Z,8.54
2023-03-16T22:13:02.170Z,8.58
2023-03-16T22:16:14.812Z,8.47
2023-03-16T22:19:18.161Z,8.49
2023-03-16T22:22:21.348Z,8.54
2023-03-16T22:25:27.664Z,8.50
2023-03-16T22:28:31.562Z,8.50
2023-03-16T22:31:35.977Z,8.44
2023-03-16T22:34:43.768Z,8.45
2023-03-16T22:37:46.490Z,8.49
2023-03-16T22:40:51.101Z,8.47
2023-03-16T22:43:55.022Z,8.47
2023-03-16T22:46:57.768Z,8.51
2023-03-16T22:50:00.757Z,8.49
2023-03-16T22:53:06.809Z,8.50
2023-03-16T22:56:11.350Z,8.41
2023-03-16T22:59:17.215Z,8.42
2023-03-16T23:02:25.296Z,8.38
2023-03-16T23:05:29.705Z,8.36
2023-03-16T23:08:32.621Z,8.37
2023-03-16T23:11:39.113Z,8.37
2023-03-16T23:14:43.337Z,8.35
2023-03-16T23:17:46.289Z,8.31
2023-03-16T23:20:49.643Z,8.30
2023-03-16T23:24:03.577Z,8.32
2023-03-16T23:27:17.257Z,8.31
2023-03-16T23:30:23.540Z,8.23
2023-03-16T23:33:27.047Z,8.25
2023-03-16T23:36:29.991Z,8.23
2023-03-16T23:39:32.840Z,8.21
2023-03-16T23:42:37.251Z,8.17
2023-03-16T23:45:42.810Z,8.11
2023-03-16T23:48:47.345Z,8.04
2023-03-16T23:51:50.308Z,8.03
2023-03-16T23:54:52.971Z,8.06
2023-03-16T23:57:57.123Z,8.07
